Victor, New York
Current Conditions -  °F | °C
As of 1:54 AM on Sunday 26 Oct 2014 (Local Time) from KROC Reporting Station
Clear Clear  
Wind Chill: 40°   Ceiling: Unl
Heat Index: 45°   Visibility: 10mi
Dew Point: 39°   Wind: 9mph
Humidity: 80%   Direction: 240°WSW
Pressure: 29.62"   Gusts: NA
Location:  42.98°N, 77.41°W
Report Text: KROC 260554Z 24008KT 10SM CLR 07/04 A2962 RMK AO2 SLP033 60010 T00720039 10139 20072 53007
Loading
Personal Weather Stations






























Interactive Weather Map
Tropical Storm Tracking
New forecast layout! Learn more

10-Day Weather Forecast

Advertisements
Track Severe Weather on mobile